Terminal Aerodrome Forecast
Issued by NWS

Current Version | Previous Version | Text Only | Print | Product List | Glossary On
Versions: 1 2 3 4 5 6 7 8 9 10 11 12 13 14 15 16
000
FTUS42 TJSJ 230500
TAFJPS
TAF
TJPS 230532Z 2306/2406 00000KT P6SM VCSH SCT030 BKN060
      TEMPO 2306/2308 VRB12G18KT 5SM SHRA BKN030
     FM231200 16007KT P6SM SCT030 BKN080
     FM232100 06004KT P6SM SCT030 SCT080=

USA.gov is the U.S. government's official web portal to all federal, state and local government web resources and services.